createdAt,value
2018-06-20T00:02:45.570Z,11.60
2018-06-20T00:07:47.699Z,9.87
2018-06-20T00:12:49.834Z,7.47
2018-06-20T00:17:51.981Z,10.30
2018-06-20T00:22:54.207Z,15.50
2018-06-20T00:27:56.343Z,9.30
2018-06-20T00:32:58.444Z,10.77
2018-06-20T00:38:00.570Z,12.57
2018-06-20T00:43:02.730Z,15.13
2018-06-20T00:48:04.906Z,14.03
2018-06-20T00:53:07.034Z,8.43
2018-06-20T00:58:09.164Z,12.60
2018-06-20T01:03:11.307Z,12.80
2018-06-20T01:08:13.433Z,10.67
2018-06-20T01:13:15.564Z,16.37
2018-06-20T01:18:17.685Z,17.17
2018-06-20T01:23:19.845Z,9.10
2018-06-20T01:28:22.135Z,16.13
2018-06-20T01:33:24.274Z,17.20
2018-06-20T01:38:26.396Z,9.87
2018-06-20T01:43:28.541Z,19.83
2018-06-20T01:48:30.725Z,12.93
2018-06-20T01:53:32.818Z,8.60
2018-06-20T01:58:34.930Z,14.77
2018-06-20T02:03:37.073Z,9.23
2018-06-20T02:08:39.227Z,12.60
2018-06-20T02:13:41.365Z,21.47
2018-06-20T02:18:43.499Z,14.90
2018-06-20T02:23:45.854Z,17.70
2018-06-20T02:28:47.960Z,10.37
2018-06-20T02:33:50.094Z,14.37
2018-06-20T02:38:52.228Z,10.40
2018-06-20T02:43:54.368Z,17.53
2018-06-20T02:48:56.552Z,11.73
2018-06-20T02:53:58.682Z,17.30
2018-06-20T02:59:00.844Z,9.23
2018-06-20T03:04:04.354Z,16.17
2018-06-20T03:09:13.332Z,16.40
2018-06-20T03:14:15.582Z,14.00
2018-06-20T03:19:17.719Z,15.33
2018-06-20T03:24:19.832Z,18.37
2018-06-20T03:29:21.930Z,8.67
2018-06-20T03:34:24.081Z,13.83
2018-06-20T03:39:26.219Z,13.50
2018-06-20T03:44:28.331Z,9.30
2018-06-20T03:49:30.452Z,20.63
2018-06-20T03:54:32.594Z,25.73
2018-06-20T03:59:34.722Z,18.87
2018-06-20T04:04:36.834Z,18.63
2018-06-20T04:09:38.938Z,10.77
2018-06-20T04:14:41.080Z,10.60
2018-06-20T04:19:43.199Z,12.80
2018-06-20T04:24:45.314Z,10.90
2018-06-20T04:29:47.428Z,13.10
2018-06-20T04:34:49.563Z,12.33
2018-06-20T04:39:51.679Z,13.30
2018-06-20T04:44:53.806Z,18.47
2018-06-20T04:49:55.950Z,9.77
2018-06-20T04:54:58.098Z,11.70
2018-06-20T05:00:00.223Z,8.53
2018-06-20T05:05:02.382Z,18.50
2018-06-20T05:10:04.538Z,12.13
2018-06-20T05:15:06.716Z,9.83
2018-06-20T05:20:08.849Z,10.50
2018-06-20T05:25:11.004Z,10.70
2018-06-20T05:30:13.202Z,15.83
2018-06-20T05:35:15.368Z,10.70
2018-06-20T05:40:17.802Z,8.40
2018-06-20T05:45:19.960Z,10.57
2018-06-20T05:50:22.128Z,11.80
2018-06-20T05:55:24.255Z,14.87
2018-06-20T06:00:26.405Z,9.47
2018-06-20T06:05:28.560Z,8.13
2018-06-20T06:10:30.690Z,14.27
2018-06-20T06:15:32.858Z,11.73
2018-06-20T06:20:34.970Z,12.57
2018-06-20T06:25:37.089Z,13.20
2018-06-20T06:30:39.324Z,18.97
2018-06-20T06:35:41.415Z,22.43
2018-06-20T06:40:43.580Z,21.43
2018-06-20T06:45:45.692Z,18.27
2018-06-20T06:50:47.869Z,24.47
2018-06-20T06:55:50.034Z,23.87
2018-06-20T07:00:52.184Z,21.63
2018-06-20T07:05:54.360Z,24.33
2018-06-20T07:10:56.791Z,25.63
2018-06-20T07:15:58.955Z,22.47
2018-06-20T07:21:01.130Z,25.63
2018-06-20T07:26:03.271Z,27.33
2018-06-20T07:31:05.414Z,32.93
2018-06-20T07:36:08.435Z,27.43
2018-06-20T07:41:10.546Z,30.10
2018-06-20T07:46:12.722Z,25.53
2018-06-20T07:51:14.948Z,30.50
2018-06-20T07:56:17.128Z,29.33
2018-06-20T08:01:36.535Z,26.10
2018-06-20T08:06:44.377Z,27.90
2018-06-20T08:11:52.375Z,20.33
2018-06-20T08:17:00.484Z,25.40
2018-06-20T08:22:02.652Z,36.60
2018-06-20T08:27:04.856Z,23.17
2018-06-20T08:32:06.987Z,21.13
2018-06-20T08:37:09.124Z,15.37
2018-06-20T08:42:11.297Z,19.77
2018-06-20T08:47:13.444Z,15.37
2018-06-20T08:52:15.624Z,16.57
2018-06-20T08:57:17.808Z,13.47
2018-06-20T09:02:20.270Z,13.40
2018-06-20T09:07:28.008Z,15.83
2018-06-20T09:12:35.924Z,19.83
2018-06-20T09:17:43.907Z,15.20
2018-06-20T09:22:46.053Z,13.13
2018-06-20T09:27:48.209Z,11.50
2018-06-20T09:32:50.345Z,16.17
2018-06-20T09:37:52.474Z,13.77
2018-06-20T09:42:54.740Z,14.93
2018-06-20T09:47:56.899Z,15.07
2018-06-20T09:52:59.126Z,15.83
2018-06-20T09:58:02.198Z,14.07
2018-06-20T10:03:09.843Z,19.53
2018-06-20T10:08:17.823Z,9.80
2018-06-20T10:13:23.636Z,11.40
2018-06-20T10:18:25.799Z,14.83
2018-06-20T10:23:27.971Z,12.93
2018-06-20T10:28:30.202Z,10.23
2018-06-20T10:33:32.295Z,10.93
2018-06-20T10:38:34.467Z,30.33
2018-06-20T10:43:36.656Z,9.07
2018-06-20T10:48:38.792Z,11.40
2018-06-20T10:53:40.979Z,12.07
2018-06-20T10:58:48.929Z,10.13
2018-06-20T11:03:56.831Z,11.97
2018-06-20T11:09:04.705Z,9.63
2018-06-20T11:14:07.450Z,9.80
2018-06-20T11:19:09.654Z,7.00
2018-06-20T11:24:11.832Z,12.03
2018-06-20T11:29:14.082Z,12.13
2018-06-20T11:34:16.226Z,12.20
2018-06-20T11:39:18.389Z,10.23
2018-06-20T11:44:20.563Z,8.70
2018-06-20T11:49:22.821Z,11.20
2018-06-20T11:54:24.987Z,9.57
2018-06-20T11:59:34.632Z,13.63
2018-06-20T12:04:42.582Z,10.97
2018-06-20T12:09:50.475Z,11.20
2018-06-20T12:14:58.432Z,6.53
2018-06-20T12:20:06.465Z,7.47
2018-06-20T12:25:14.456Z,9.60
2018-06-20T12:30:22.421Z,6.67
2018-06-20T12:35:30.407Z,5.03
2018-06-20T12:40:38.443Z,10.30
2018-06-20T12:45:40.895Z,6.47
2018-06-20T12:50:43.045Z,5.73
2018-06-20T12:55:45.291Z,5.30
2018-06-20T13:00:47.436Z,6.93
2018-06-20T13:05:49.619Z,7.27
2018-06-20T13:10:51.831Z,6.33
2018-06-20T13:15:53.971Z,7.13
2018-06-20T13:20:56.145Z,9.90
2018-06-20T13:25:58.330Z,5.33
2018-06-20T13:31:06.131Z,4.33
2018-06-20T13:36:14.064Z,6.30
2018-06-20T13:41:22.090Z,4.50
2018-06-20T13:46:30.010Z,6.83
2018-06-20T13:51:32.156Z,9.93
2018-06-20T13:56:34.376Z,10.93
2018-06-20T14:01:36.517Z,4.50
2018-06-20T14:06:38.670Z,5.60
2018-06-20T14:11:41.384Z,5.37
2018-06-20T14:16:43.623Z,8.60
2018-06-20T14:21:48.703Z,6.07
2018-06-20T14:26:53.561Z,4.50
2018-06-20T14:32:06.368Z,3.97
2018-06-20T14:37:26.026Z,4.17
2018-06-20T14:42:38.968Z,4.07
2018-06-20T14:47:41.151Z,4.37
2018-06-20T14:52:43.320Z,5.60
2018-06-20T14:57:45.479Z,5.40
2018-06-20T15:02:47.648Z,3.33
2018-06-20T15:07:50.665Z,7.50
2018-06-20T15:12:53.348Z,3.47
2018-06-20T15:17:55.513Z,6.70
2018-06-20T15:22:57.689Z,5.70
2018-06-20T15:28:05.603Z,3.27
2018-06-20T15:33:13.556Z,4.83
2018-06-20T15:38:17.521Z,3.10
2018-06-20T15:43:19.691Z,4.93
2018-06-20T15:48:21.881Z,2.97
2018-06-20T15:53:24.049Z,5.83
2018-06-20T15:58:26.257Z,6.53
2018-06-20T16:03:28.471Z,5.30
2018-06-20T16:08:30.636Z,10.30
2018-06-20T16:13:32.796Z,5.20
2018-06-20T16:18:34.986Z,7.03
2018-06-20T16:23:42.981Z,5.50
2018-06-20T16:28:50.917Z,6.90
2018-06-20T16:33:53.226Z,9.20
2018-06-20T16:38:55.384Z,8.80
2018-06-20T16:43:57.559Z,8.93
2018-06-20T16:48:59.906Z,17.83
2018-06-20T16:54:02.982Z,19.20
2018-06-20T16:59:05.225Z,32.97
2018-06-20T17:04:07.456Z,32.63
2018-06-20T17:09:10.235Z,20.33
2018-06-20T17:14:18.107Z,29.50
2018-06-20T17:19:26.088Z,26.50
2018-06-20T17:24:33.892Z,29.50
2018-06-20T17:29:36.108Z,29.93
2018-06-20T17:34:39.052Z,34.50
2018-06-20T17:39:41.228Z,30.53
2018-06-20T17:44:43.760Z,26.43
2018-06-20T17:49:46.570Z,26.73
2018-06-20T17:54:48.957Z,23.33
2018-06-20T17:59:51.182Z,18.40
2018-06-20T18:04:59.216Z,19.20
2018-06-20T18:10:07.141Z,18.90
2018-06-20T18:15:15.084Z,18.87
2018-06-20T18:20:17.268Z,19.47
2018-06-20T18:25:19.552Z,19.37
2018-06-20T18:30:21.842Z,17.53
2018-06-20T18:35:24.064Z,17.47
2018-06-20T18:40:26.332Z,20.77
2018-06-20T18:45:28.515Z,17.80
2018-06-20T18:50:30.735Z,19.40
2018-06-20T18:55:32.950Z,20.93
2018-06-20T19:00:40.938Z,23.73
2018-06-20T19:05:48.906Z,22.90
2018-06-20T19:10:51.167Z,23.33
2018-06-20T19:15:53.375Z,27.87
2018-06-20T19:20:55.652Z,32.03
2018-06-20T19:25:57.957Z,39.63
2018-06-20T19:31:00.131Z,28.93
2018-06-20T19:36:02.574Z,34.93
2018-06-20T19:41:04.789Z,24.10
2018-06-20T19:46:07.275Z,30.47
2018-06-20T19:51:09.462Z,27.53
2018-06-20T19:56:11.661Z,25.73
2018-06-20T20:01:13.904Z,27.83
2018-06-20T20:06:16.120Z,22.33
2018-06-20T20:11:18.301Z,20.10
2018-06-20T20:16:20.492Z,24.87
2018-06-20T20:21:22.677Z,21.80
2018-06-20T20:26:24.900Z,23.87
2018-06-20T20:31:27.098Z,21.03
2018-06-20T20:36:29.283Z,19.27
2018-06-20T20:41:31.504Z,14.53
2018-06-20T20:46:33.705Z,19.83
2018-06-20T20:51:35.893Z,21.90
2018-06-20T20:56:38.056Z,15.20
2018-06-20T21:01:40.271Z,13.57
2018-06-20T21:06:42.466Z,12.53
2018-06-20T21:11:45.299Z,12.97
2018-06-20T21:16:47.491Z,19.77
2018-06-20T21:21:49.695Z,11.27
2018-06-20T21:26:51.993Z,9.50
2018-06-20T21:31:54.145Z,9.23
2018-06-20T21:36:56.343Z,7.50
2018-06-20T21:41:58.483Z,10.50
2018-06-20T21:47:00.647Z,10.90
2018-06-20T21:52:02.852Z,10.00
2018-06-20T21:57:05.071Z,9.60
2018-06-20T22:02:07.310Z,9.20
2018-06-20T22:07:09.488Z,7.33
2018-06-20T22:12:11.657Z,12.80
2018-06-20T22:17:13.803Z,11.00
2018-06-20T22:22:15.947Z,9.63
2018-06-20T22:27:18.096Z,12.07
2018-06-20T22:32:20.229Z,12.97
2018-06-20T22:37:22.630Z,19.57
2018-06-20T22:42:24.803Z,13.90
2018-06-20T22:47:27.310Z,24.20
2018-06-20T22:52:29.439Z,11.30
2018-06-20T22:57:31.882Z,14.03
2018-06-20T23:02:34.360Z,17.57
2018-06-20T23:07:36.560Z,15.83
2018-06-20T23:12:38.728Z,17.13
2018-06-20T23:17:40.861Z,17.10
2018-06-20T23:22:42.973Z,22.00
2018-06-20T23:27:45.095Z,17.27
2018-06-20T23:32:47.240Z,14.80
2018-06-20T23:37:49.393Z,23.47
2018-06-20T23:42:51.538Z,24.47
2018-06-20T23:47:53.690Z,19.33
2018-06-20T23:52:55.824Z,23.03
2018-06-20T23:57:57.987Z,15.43
